createdAt,value
2022-10-19T00:02:37.072Z,20.74
2022-10-19T00:05:22.850Z,20.74
2022-10-19T00:08:08.595Z,20.72
2022-10-19T00:10:54.415Z,20.70
2022-10-19T00:13:40.336Z,20.69
2022-10-19T00:16:26.174Z,20.65
2022-10-19T00:19:11.948Z,20.65
2022-10-19T00:21:57.734Z,20.63
2022-10-19T00:24:43.605Z,20.62
2022-10-19T00:27:29.390Z,20.61
2022-10-19T00:30:15.240Z,20.61
2022-10-19T00:33:01.125Z,20.58
2022-10-19T00:35:46.856Z,20.54
2022-10-19T00:38:32.752Z,20.53
2022-10-19T00:41:18.674Z,20.52
2022-10-19T00:44:04.544Z,20.51
2022-10-19T00:46:50.399Z,20.50
2022-10-19T00:49:36.182Z,20.49
2022-10-19T00:52:22.095Z,20.47
2022-10-19T00:55:07.797Z,20.44
2022-10-19T00:57:53.608Z,20.44
2022-10-19T01:00:39.409Z,20.39
2022-10-19T01:03:25.250Z,20.38
2022-10-19T01:06:11.031Z,20.35
2022-10-19T01:08:56.972Z,20.33
2022-10-19T01:11:42.861Z,20.32
2022-10-19T01:14:28.809Z,20.30
2022-10-19T01:17:14.706Z,20.28
2022-10-19T01:20:00.585Z,20.27
2022-10-19T01:22:46.757Z,20.25
2022-10-19T01:25:32.592Z,20.23
2022-10-19T01:28:18.492Z,20.21
2022-10-19T01:31:04.445Z,20.17
2022-10-19T01:33:50.289Z,20.13
2022-10-19T01:36:36.349Z,20.11
2022-10-19T01:39:22.263Z,20.08
2022-10-19T01:42:08.173Z,20.06
2022-10-19T01:44:54.213Z,20.04
2022-10-19T01:47:40.100Z,20.01
2022-10-19T01:50:25.902Z,20.00
2022-10-19T01:53:11.744Z,20.00
2022-10-19T01:55:57.655Z,20.00
2022-10-19T01:58:45.509Z,19.98
2022-10-19T02:01:31.431Z,19.97
2022-10-19T02:04:17.277Z,19.97
2022-10-19T02:07:03.118Z,19.95
2022-10-19T02:09:48.899Z,19.91
2022-10-19T02:12:34.998Z,19.89
2022-10-19T02:15:21.465Z,19.87
2022-10-19T02:18:07.491Z,19.88
2022-10-19T02:20:53.271Z,19.89
2022-10-19T02:23:39.248Z,19.86
2022-10-19T02:26:25.042Z,19.83
2022-10-19T02:29:10.920Z,19.78
2022-10-19T02:31:56.794Z,19.75
2022-10-19T02:34:42.625Z,19.72
2022-10-19T02:37:28.452Z,19.66
2022-10-19T02:40:14.220Z,19.61
2022-10-19T02:43:00.077Z,19.57
2022-10-19T02:45:48.160Z,19.53
2022-10-19T02:48:36.047Z,19.49
2022-10-19T02:51:21.935Z,19.46
2022-10-19T02:54:07.835Z,19.45
2022-10-19T02:56:53.615Z,19.46
2022-10-19T02:59:39.387Z,19.44
2022-10-19T03:02:25.310Z,19.43
2022-10-19T03:05:11.103Z,19.39
2022-10-19T03:07:57.087Z,19.44
2022-10-19T03:10:42.799Z,19.43
2022-10-19T03:13:28.766Z,19.41
2022-10-19T03:16:14.681Z,19.40
2022-10-19T03:19:00.655Z,19.38
2022-10-19T03:21:46.401Z,19.35
2022-10-19T03:24:32.302Z,19.34
2022-10-19T03:27:18.169Z,19.31
2022-10-19T03:30:04.016Z,19.28
2022-10-19T03:32:49.771Z,19.26
2022-10-19T03:35:35.652Z,19.23
2022-10-19T03:38:21.547Z,19.20
2022-10-19T03:41:07.231Z,19.19
2022-10-19T03:43:53.127Z,19.17
2022-10-19T03:46:38.985Z,19.16
2022-10-19T03:49:24.856Z,19.14
2022-10-19T03:52:10.882Z,19.14
2022-10-19T03:54:56.623Z,19.14
2022-10-19T03:57:42.443Z,19.12
2022-10-19T04:00:28.269Z,19.10
2022-10-19T04:03:14.112Z,19.10
2022-10-19T04:06:00.068Z,19.11
2022-10-19T04:08:45.788Z,19.14
2022-10-19T04:11:31.629Z,19.16
2022-10-19T04:14:45.767Z,19.22
2022-10-19T04:17:45.638Z,19.25
2022-10-19T04:20:34.008Z,19.26
2022-10-19T04:23:19.799Z,19.25
2022-10-19T04:26:05.720Z,19.26
2022-10-19T04:28:51.604Z,19.25
2022-10-19T04:31:37.677Z,19.25
2022-10-19T04:34:23.526Z,19.24
2022-10-19T04:37:09.353Z,19.23
2022-10-19T04:39:55.241Z,19.22
2022-10-19T04:42:41.175Z,19.20
2022-10-19T04:45:26.908Z,19.17
2022-10-19T04:48:15.027Z,19.15
2022-10-19T04:51:01.288Z,19.13
2022-10-19T04:53:46.912Z,19.11
2022-10-19T04:56:32.856Z,19.10
2022-10-19T04:59:20.696Z,19.09
2022-10-19T05:02:06.621Z,19.07
2022-10-19T05:04:52.559Z,19.07
2022-10-19T05:07:38.478Z,19.04
2022-10-19T05:10:24.357Z,19.04
2022-10-19T05:13:10.484Z,19.01
2022-10-19T05:15:56.226Z,18.99
2022-10-19T05:18:42.167Z,18.96
2022-10-19T05:21:27.946Z,18.94
2022-10-19T05:24:13.672Z,18.93
2022-10-19T05:26:59.543Z,18.91
2022-10-19T05:29:45.325Z,18.88
2022-10-19T05:32:31.227Z,18.88
2022-10-19T05:35:22.358Z,18.84
2022-10-19T05:38:08.643Z,18.82
2022-10-19T05:40:54.343Z,18.80
2022-10-19T05:43:40.237Z,18.81
2022-10-19T05:46:26.008Z,18.87
2022-10-19T05:49:11.831Z,18.89
2022-10-19T05:51:57.703Z,18.89
2022-10-19T05:54:43.455Z,18.91
2022-10-19T05:57:29.407Z,18.92
2022-10-19T06:00:15.304Z,18.91
2022-10-19T06:03:01.200Z,18.90
2022-10-19T06:05:47.039Z,18.89
2022-10-19T06:08:32.724Z,18.89
2022-10-19T06:11:18.681Z,18.91
2022-10-19T06:14:04.401Z,18.92
2022-10-19T06:16:50.169Z,18.93
2022-10-19T06:19:35.953Z,18.94
2022-10-19T06:22:21.646Z,18.94
2022-10-19T06:25:07.537Z,18.94
2022-10-19T06:27:53.379Z,18.96
2022-10-19T06:30:39.382Z,18.99
2022-10-19T06:33:25.185Z,19.00
2022-10-19T06:36:11.031Z,19.03
2022-10-19T06:38:56.888Z,19.06
2022-10-19T06:41:42.925Z,19.10
2022-10-19T06:44:28.629Z,19.15
2022-10-19T06:47:14.570Z,19.20
2022-10-19T06:50:00.407Z,19.24
2022-10-19T06:52:46.085Z,19.28
2022-10-19T06:55:31.830Z,19.34
2022-10-19T06:58:17.731Z,19.38
2022-10-19T07:01:03.764Z,19.44
2022-10-19T07:03:50.113Z,19.48
2022-10-19T07:06:35.832Z,19.52
2022-10-19T07:09:21.760Z,19.57
2022-10-19T07:12:07.612Z,19.62
2022-10-19T07:14:53.487Z,19.68
2022-10-19T07:17:39.455Z,19.72
2022-10-19T07:20:25.213Z,19.77
2022-10-19T07:23:11.226Z,19.82
2022-10-19T07:25:57.062Z,19.87
2022-10-19T07:28:44.853Z,19.93
2022-10-19T07:31:30.766Z,19.99
2022-10-19T07:34:16.606Z,20.04
2022-10-19T07:37:02.525Z,20.09
2022-10-19T07:39:48.368Z,20.13
2022-10-19T07:42:34.286Z,20.20
2022-10-19T07:45:20.317Z,20.25
2022-10-19T07:48:06.248Z,20.31
2022-10-19T07:50:52.044Z,20.37
2022-10-19T07:53:38.201Z,20.38
2022-10-19T07:56:24.151Z,20.44
2022-10-19T07:59:10.003Z,20.46
2022-10-19T08:01:55.973Z,20.51
2022-10-19T08:05:00.280Z,20.55
2022-10-19T08:07:47.821Z,20.61
2022-10-19T08:10:33.737Z,20.53
2022-10-19T08:13:19.664Z,20.45
2022-10-19T08:16:05.562Z,20.28
2022-10-19T08:18:51.547Z,19.75
2022-10-19T08:21:37.427Z,18.93
2022-10-19T08:24:23.545Z,18.88
2022-10-19T08:27:09.567Z,19.42
2022-10-19T08:29:55.384Z,19.71
2022-10-19T08:32:41.247Z,19.93
2022-10-19T08:35:27.183Z,20.17
2022-10-19T08:38:13.001Z,20.31
2022-10-19T08:40:58.949Z,20.29
2022-10-19T08:43:44.746Z,20.30
2022-10-19T08:46:30.725Z,20.09
2022-10-19T08:49:16.675Z,20.40
2022-10-19T08:52:02.434Z,20.58
2022-10-19T08:54:48.185Z,19.71
2022-10-19T08:57:34.201Z,17.71
2022-10-19T09:00:20.457Z,17.16
2022-10-19T09:03:06.438Z,17.37
2022-10-19T09:05:52.163Z,16.48
2022-10-19T09:08:38.051Z,16.54
2022-10-19T09:11:24.006Z,16.61
2022-10-19T09:14:09.807Z,16.23
2022-10-19T09:16:55.730Z,15.48
2022-10-19T09:19:41.658Z,15.19
2022-10-19T09:22:27.439Z,15.60
2022-10-19T09:25:13.435Z,16.00
2022-10-19T09:27:59.315Z,16.58
2022-10-19T09:30:45.250Z,14.93
2022-10-19T09:33:31.106Z,14.24
2022-10-19T09:36:22.636Z,15.14
2022-10-19T09:39:13.797Z,14.63
2022-10-19T09:41:59.718Z,14.44
2022-10-19T09:44:47.629Z,14.86
2022-10-19T09:47:33.903Z,15.29
2022-10-19T09:50:22.000Z,14.93
2022-10-19T09:53:07.923Z,14.38
2022-10-19T09:55:53.859Z,14.52
2022-10-19T09:58:39.878Z,14.48
2022-10-19T10:01:29.615Z,14.35
2022-10-19T10:04:19.438Z,14.67
2022-10-19T10:07:05.203Z,14.73
2022-10-19T10:09:51.190Z,15.19
2022-10-19T10:12:37.238Z,15.27
2022-10-19T10:15:23.010Z,15.69
2022-10-19T10:18:08.776Z,15.33
2022-10-19T10:20:54.713Z,15.85
2022-10-19T10:23:40.690Z,15.64
2022-10-19T10:26:26.925Z,16.01
2022-10-19T10:29:12.900Z,16.82
2022-10-19T10:31:58.839Z,16.35
2022-10-19T10:34:51.820Z,16.34
2022-10-19T10:37:38.901Z,16.80
2022-10-19T10:40:26.812Z,16.86
2022-10-19T10:43:12.657Z,16.68
2022-10-19T10:45:58.633Z,16.10
2022-10-19T10:48:44.493Z,16.43
2022-10-19T10:51:30.333Z,16.35
2022-10-19T10:54:16.431Z,16.25
2022-10-19T10:57:05.600Z,16.23
2022-10-19T10:59:52.779Z,15.33
2022-10-19T11:02:38.653Z,15.39
2022-10-19T11:05:26.347Z,15.51
2022-10-19T11:08:12.303Z,15.38
2022-10-19T11:10:58.416Z,15.84
2022-10-19T11:13:44.270Z,16.19
2022-10-19T11:16:30.126Z,16.80
2022-10-19T11:19:16.530Z,16.81
2022-10-19T11:22:02.392Z,16.72
2022-10-19T11:24:48.773Z,16.50
2022-10-19T11:27:35.243Z,16.47
2022-10-19T11:30:21.279Z,16.66
2022-10-19T11:33:07.326Z,16.52
2022-10-19T11:35:55.246Z,17.12
2022-10-19T11:38:41.068Z,17.17
2022-10-19T11:41:26.998Z,16.36
2022-10-19T11:44:14.935Z,16.84
2022-10-19T11:47:00.874Z,16.35
2022-10-19T11:49:46.829Z,16.71
2022-10-19T11:52:33.042Z,16.05
2022-10-19T11:55:19.172Z,16.30
2022-10-19T11:58:05.091Z,15.68
2022-10-19T12:00:50.842Z,16.56
2022-10-19T12:03:36.621Z,17.23
2022-10-19T12:06:22.569Z,17.39
2022-10-19T12:09:08.425Z,17.20
2022-10-19T12:11:54.443Z,17.31
2022-10-19T12:14:40.231Z,17.27
2022-10-19T12:17:26.208Z,16.25
2022-10-19T12:20:14.886Z,16.24
2022-10-19T12:23:03.422Z,16.73
2022-10-19T12:25:49.187Z,16.42
2022-10-19T12:28:35.116Z,17.01
2022-10-19T12:31:20.964Z,16.87
2022-10-19T12:34:06.758Z,16.80
2022-10-19T12:36:52.705Z,17.31
2022-10-19T12:39:38.493Z,17.33
2022-10-19T12:42:24.367Z,17.70
2022-10-19T12:45:10.212Z,17.97
2022-10-19T12:47:58.099Z,17.70
2022-10-19T12:50:43.938Z,18.03
2022-10-19T12:53:29.826Z,18.50
2022-10-19T12:56:15.679Z,18.70
2022-10-19T12:59:01.782Z,18.48
2022-10-19T13:01:47.813Z,18.90
2022-10-19T13:04:33.964Z,18.19
2022-10-19T13:07:20.284Z,17.52
2022-10-19T13:10:06.048Z,17.33
2022-10-19T13:12:52.044Z,17.46
2022-10-19T13:15:37.953Z,17.54
2022-10-19T13:18:23.873Z,18.06
2022-10-19T13:21:10.135Z,17.44
2022-10-19T13:23:56.237Z,17.00
2022-10-19T13:26:42.325Z,17.08
2022-10-19T13:29:28.312Z,17.09
2022-10-19T13:32:14.195Z,17.11
2022-10-19T13:35:00.197Z,16.90
2022-10-19T13:37:46.071Z,16.82
2022-10-19T13:40:32.007Z,16.81
2022-10-19T13:43:17.883Z,16.98
2022-10-19T13:46:03.621Z,17.27
2022-10-19T13:48:49.539Z,17.31
2022-10-19T13:51:35.489Z,17.21
2022-10-19T13:54:21.461Z,16.61
2022-10-19T13:57:07.440Z,16.80
2022-10-19T13:59:53.349Z,17.30
2022-10-19T14:02:39.184Z,17.18
2022-10-19T14:05:25.114Z,17.66
2022-10-19T14:08:10.966Z,18.13
2022-10-19T14:11:00.996Z,17.99
2022-10-19T14:13:47.548Z,17.42
2022-10-19T14:16:33.237Z,17.54
2022-10-19T14:19:19.062Z,18.09
2022-10-19T14:22:05.008Z,17.57
2022-10-19T14:24:50.831Z,17.81
2022-10-19T14:27:36.948Z,17.67
2022-10-19T14:30:23.230Z,17.77
2022-10-19T14:33:08.884Z,18.74
2022-10-19T14:35:54.671Z,19.19
2022-10-19T14:38:40.538Z,18.76
2022-10-19T14:41:26.522Z,18.58
2022-10-19T14:44:12.468Z,18.39
2022-10-19T14:46:58.330Z,18.77
2022-10-19T14:49:44.241Z,18.36
2022-10-19T14:52:30.224Z,17.90
2022-10-19T14:55:17.857Z,18.24
2022-10-19T14:58:03.983Z,18.77
2022-10-19T15:00:49.869Z,18.64
2022-10-19T15:03:38.110Z,18.88
2022-10-19T15:06:27.397Z,18.70
2022-10-19T15:09:24.489Z,19.21
2022-10-19T15:12:19.312Z,18.99
2022-10-19T15:15:05.186Z,19.54
2022-10-19T15:17:51.073Z,19.08
2022-10-19T15:20:44.245Z,18.22
2022-10-19T15:23:35.086Z,17.70
2022-10-19T15:26:22.901Z,17.11
2022-10-19T15:29:08.665Z,16.71
2022-10-19T15:31:54.735Z,16.71
2022-10-19T15:34:40.483Z,16.85
2022-10-19T15:40:17.440Z,16.06
2022-10-19T15:43:03.335Z,16.82
2022-10-19T15:45:49.125Z,17.64
2022-10-19T15:48:35.055Z,17.41
2022-10-19T15:51:21.886Z,17.49
2022-10-19T15:54:07.763Z,17.21
2022-10-19T15:56:53.735Z,17.03
2022-10-19T15:59:39.797Z,16.77
2022-10-19T16:02:25.652Z,16.72
2022-10-19T16:05:11.700Z,17.13
2022-10-19T16:07:57.860Z,17.63
2022-10-19T16:10:43.651Z,17.37
2022-10-19T16:13:29.485Z,17.08
2022-10-19T16:16:15.290Z,17.58
2022-10-19T16:19:01.149Z,17.92
2022-10-19T16:21:50.249Z,17.82
2022-10-19T16:24:36.504Z,17.21
2022-10-19T16:27:22.375Z,16.66
2022-10-19T16:30:08.276Z,15.97
2022-10-19T16:32:54.217Z,15.42
2022-10-19T16:35:40.077Z,14.80
2022-10-19T16:38:25.898Z,14.51
2022-10-19T16:41:11.739Z,14.01
2022-10-19T16:43:57.642Z,13.81
2022-10-19T16:46:43.439Z,13.49
2022-10-19T16:49:29.497Z,13.81
2022-10-19T16:52:15.309Z,14.35
2022-10-19T16:55:01.225Z,15.02
2022-10-19T16:57:47.138Z,15.31
2022-10-19T17:00:33.165Z,15.91
2022-10-19T17:03:18.855Z,16.27
2022-10-19T17:06:04.560Z,16.74
2022-10-19T17:09:23.603Z,16.23
2022-10-19T17:11:56.545Z,14.55
2022-10-19T17:14:42.462Z,14.23
2022-10-19T17:17:28.301Z,14.04
2022-10-19T17:20:14.449Z,13.69
2022-10-19T17:23:00.361Z,13.61
2022-10-19T17:25:48.107Z,13.30
2022-10-19T17:28:34.001Z,12.91
2022-10-19T17:31:19.919Z,12.74
2022-10-19T17:34:05.881Z,12.59
2022-10-19T17:36:51.768Z,12.39
2022-10-19T17:39:37.609Z,12.38
2022-10-19T17:42:25.469Z,12.45
2022-10-19T17:45:11.484Z,12.61
2022-10-19T17:47:57.297Z,12.83
2022-10-19T17:50:43.230Z,13.11
2022-10-19T17:53:29.251Z,13.00
2022-10-19T17:56:15.098Z,13.27
2022-10-19T17:59:01.090Z,13.54
2022-10-19T18:01:46.925Z,13.81
2022-10-19T18:04:33.132Z,13.95
2022-10-19T18:07:19.109Z,14.17
2022-10-19T18:10:06.952Z,13.44
2022-10-19T18:12:52.965Z,13.38
2022-10-19T18:15:38.879Z,12.93
2022-10-19T18:18:24.786Z,12.64
2022-10-19T18:21:10.741Z,12.51
2022-10-19T18:23:56.793Z,12.58
2022-10-19T18:26:42.739Z,12.56
2022-10-19T18:29:28.580Z,12.51
2022-10-19T18:32:14.372Z,12.62
2022-10-19T18:35:00.270Z,12.53
2022-10-19T18:37:46.149Z,12.60
2022-10-19T18:40:32.035Z,12.35
2022-10-19T18:43:17.877Z,12.49
2022-10-19T18:46:03.703Z,12.52
2022-10-19T18:48:49.518Z,12.54
2022-10-19T18:51:35.446Z,12.45
2022-10-19T18:54:21.254Z,12.51
2022-10-19T18:57:07.203Z,12.59
2022-10-19T18:59:55.169Z,12.79
2022-10-19T19:02:46.771Z,12.91
2022-10-19T19:05:33.124Z,13.13
2022-10-19T19:08:18.971Z,13.61
2022-10-19T19:11:04.863Z,13.65
2022-10-19T19:13:50.790Z,13.07
2022-10-19T19:16:36.741Z,13.29
2022-10-19T19:19:22.530Z,13.33
2022-10-19T19:22:08.841Z,13.06
2022-10-19T19:24:54.951Z,13.39
2022-10-19T19:27:40.802Z,13.55
2022-10-19T19:30:26.809Z,13.95
2022-10-19T19:33:14.659Z,13.98
2022-10-19T19:36:00.548Z,13.56
2022-10-19T19:38:46.460Z,13.46
2022-10-19T19:41:32.259Z,13.51
2022-10-19T19:44:18.162Z,13.57
2022-10-19T19:47:04.137Z,13.77
2022-10-19T19:49:49.999Z,13.75
2022-10-19T19:52:40.243Z,13.63
2022-10-19T19:55:26.506Z,13.70
2022-10-19T19:58:12.476Z,13.93
2022-10-19T20:00:58.286Z,14.05
2022-10-19T20:03:44.192Z,14.19
2022-10-19T20:06:29.981Z,14.25
2022-10-19T20:09:15.856Z,14.42
2022-10-19T20:12:01.735Z,14.55
2022-10-19T20:14:47.766Z,14.29
2022-10-19T20:17:33.834Z,14.41
2022-10-19T20:20:19.904Z,14.53
2022-10-19T20:23:05.738Z,14.30
2022-10-19T20:25:51.663Z,14.11
2022-10-19T20:28:37.480Z,13.81
2022-10-19T20:31:23.287Z,13.31
2022-10-19T20:34:09.332Z,13.72
2022-10-19T20:36:55.174Z,13.92
2022-10-19T20:39:41.115Z,13.85
2022-10-19T20:42:26.922Z,14.20
2022-10-19T20:45:12.808Z,13.67
2022-10-19T20:47:58.703Z,13.43
2022-10-19T20:50:44.659Z,13.69
2022-10-19T20:53:30.478Z,13.57
2022-10-19T20:56:16.401Z,13.26
2022-10-19T21:01:49.218Z,13.25
2022-10-19T21:04:35.165Z,13.18
2022-10-19T21:07:21.182Z,13.39
2022-10-19T21:10:06.991Z,13.46
2022-10-19T21:12:52.871Z,13.72
2022-10-19T21:15:38.653Z,13.48
2022-10-19T21:18:24.583Z,13.61
2022-10-19T21:21:10.440Z,13.70
2022-10-19T21:23:56.399Z,13.76
2022-10-19T21:26:42.161Z,13.95
2022-10-19T21:29:28.009Z,13.77
2022-10-19T21:32:13.978Z,13.99
2022-10-19T21:34:59.811Z,14.18
2022-10-19T21:37:45.772Z,13.94
2022-10-19T21:40:31.573Z,14.46
2022-10-19T21:43:17.295Z,14.18
2022-10-19T21:46:03.141Z,14.36
2022-10-19T21:48:48.975Z,14.27
2022-10-19T21:51:34.799Z,14.69
2022-10-19T21:54:20.628Z,14.35
2022-10-19T21:57:06.575Z,14.05
2022-10-19T21:59:52.538Z,13.98
2022-10-19T22:02:38.358Z,14.39
2022-10-19T22:05:24.171Z,14.30
2022-10-19T22:08:12.014Z,14.27
2022-10-19T22:10:57.804Z,14.40
2022-10-19T22:13:43.794Z,14.92
2022-10-19T22:16:29.594Z,14.70
2022-10-19T22:19:15.355Z,14.31
2022-10-19T22:22:01.295Z,14.51
2022-10-19T22:24:47.011Z,14.49
2022-10-19T22:27:32.895Z,14.60
2022-10-19T22:30:18.965Z,15.20
2022-10-19T22:33:04.782Z,15.09
2022-10-19T22:35:50.637Z,15.37
2022-10-19T22:38:36.472Z,15.38
2022-10-19T22:41:22.414Z,15.54
2022-10-19T22:44:08.470Z,15.28
2022-10-19T22:46:54.259Z,15.18
2022-10-19T22:49:40.167Z,15.50
2022-10-19T22:52:26.025Z,15.33
2022-10-19T22:55:11.829Z,15.72
2022-10-19T22:57:57.791Z,16.07
2022-10-19T23:00:43.783Z,16.50
2022-10-19T23:03:31.565Z,16.67
2022-10-19T23:06:17.510Z,16.73
2022-10-19T23:09:03.419Z,17.12
2022-10-19T23:11:49.283Z,17.03
2022-10-19T23:14:35.197Z,17.32
2022-10-19T23:17:23.035Z,17.55
2022-10-19T23:20:08.920Z,17.73
2022-10-19T23:22:54.880Z,17.72
2022-10-19T23:25:40.570Z,17.87
2022-10-19T23:28:26.468Z,18.10
2022-10-19T23:31:12.241Z,17.94
2022-10-19T23:33:58.191Z,17.87
2022-10-19T23:36:44.100Z,17.65
2022-10-19T23:39:29.836Z,16.72
2022-10-19T23:42:16.888Z,15.95
2022-10-19T23:45:03.069Z,15.04
2022-10-19T23:47:48.819Z,15.06
2022-10-19T23:50:34.793Z,14.97
2022-10-19T23:53:21.726Z,14.30
2022-10-19T23:56:07.492Z,14.48
2022-10-19T23:58:53.331Z,14.79
